アナディリ の空港の天気 - METARとTAF

アナディリ・ウゴルヌイ空港 ( UHMA / DYR ) - ロシア アナディリ
飛行場実況気象(Metar)
観測時間08/23 03:00 MAGT (08/22 16:00 UTC)
風向・風速東 9m/s
視程10km以上
天気現象
なし
気温9℃
湿度81%
気圧1016hPa
METARUHMA 221600Z 08009MPS CAVOK 09/06 Q1016 R01/////// NOSIG RMK TDZ R01/08009G13MPS END R01/11011G16MPS QFE758/1011
過去の天気等 Google飛行場航空写真 Wunderground天気予報

過去48時間のMETAR

飛行場予報(TAF)
発表時間: 8/23 03:13 MAGT (8/22 16:13 UTC)
予報対象時間: 23日3時 MAGT ~ 24日2時 MAGT
風向・風速東 8m/s 瞬間風速 13m/s
視程10km以上
全天の4割程度の雲 雲底高度 910m
23日3時 MAGT ~ 23日9時 MAGT に一時的に
風向・風速東南東 3m/s 瞬間風速 8m/s
視程5000m
天気現象弱いしゅう雨 もや
全天の4割程度の雲 雲底高度 300m
全天の8割程度の積乱雲 雲底高度 610m
23日9時 MAGT ~ 23日11時 MAGT に徐々に
風向・風速南 3m/s 瞬間風速 8m/s
23日11時 MAGT ~ 24日2時 MAGT に一時的に
風向・風速西南西 6m/s
TAF AMD UHMA 221613Z 2216/2315 08008G13MPS 9999 SCT030
TEMPO 2216/2222 11003G08MPS 5000 -SHRA BR SCT010 BKN020CB
BECMG 2222/2224 19003G08MPS
TEMPO 2300/2315 24006MPS